sensor_id;sensor_type;location;lat;lon;timestamp;pressure;altitude;pressure_sealevel;temperature;humidity
13934;BME280;7039;52.168;9.866;2023-03-26T00:01:33;99493.78;;;8.54;87.72
13934;BME280;7039;52.168;9.866;2023-03-26T00:04:02;99493.34;;;8.76;87.46
13934;BME280;7039;52.168;9.866;2023-03-26T00:06:32;99492.53;;;8.76;87.03
13934;BME280;7039;52.168;9.866;2023-03-26T00:09:03;99495.53;;;8.84;86.46
13934;BME280;7039;52.168;9.866;2023-03-26T00:11:29;99493.28;;;8.78;86.96
13934;BME280;7039;52.168;9.866;2023-03-26T00:13:56;99496.81;;;8.77;86.95
13934;BME280;7039;52.168;9.866;2023-03-26T00:16:24;99502.38;;;8.85;86.60
13934;BME280;7039;52.168;9.866;2023-03-26T00:18:51;99508.91;;;8.92;86.73
13934;BME280;7039;52.168;9.866;2023-03-26T00:21:19;99512.72;;;8.87;87.00
13934;BME280;7039;52.168;9.866;2023-03-26T00:23:47;99508.41;;;8.71;87.79
13934;BME280;7039;52.168;9.866;2023-03-26T00:26:14;99510.22;;;8.55;88.05
13934;BME280;7039;52.168;9.866;2023-03-26T00:28:42;99516.25;;;8.55;87.78
13934;BME280;7039;52.168;9.866;2023-03-26T00:31:13;99503.09;;;8.59;88.33
13934;BME280;7039;52.168;9.866;2023-03-26T00:33:40;99511.81;;;8.72;87.73
13934;BME280;7039;52.168;9.866;2023-03-26T00:36:09;99501.06;;;8.64;88.09
13934;BME280;7039;52.168;9.866;2023-03-26T00:38:36;99511.72;;;8.59;87.81
13934;BME280;7039;52.168;9.866;2023-03-26T00:41:08;99514.16;;;8.76;87.41
13934;BME280;7039;52.168;9.866;2023-03-26T00:43:43;99513.25;;;8.77;87.19
13934;BME280;7039;52.168;9.866;2023-03-26T00:46:10;99514.13;;;8.62;87.33
13934;BME280;7039;52.168;9.866;2023-03-26T00:48:37;99512.69;;;8.72;86.84
13934;BME280;7039;52.168;9.866;2023-03-26T00:51:07;99515.19;;;8.74;86.89
13934;BME280;7039;52.168;9.866;2023-03-26T00:53:35;99523.56;;;8.79;86.01
13934;BME280;7039;52.168;9.866;2023-03-26T00:56:05;99520.84;;;8.81;86.22
13934;BME280;7039;52.168;9.866;2023-03-26T00:58:32;99521.25;;;8.74;86.22
13934;BME280;7039;52.168;9.866;2023-03-26T01:01:00;99518.53;;;8.76;86.64
13934;BME280;7039;52.168;9.866;2023-03-26T01:03:30;99535.16;;;8.73;86.53
13934;BME280;7039;52.168;9.866;2023-03-26T01:05:58;99528.50;;;8.84;86.52
13934;BME280;7039;52.168;9.866;2023-03-26T01:08:31;99534.41;;;8.71;86.84
13934;BME280;7039;52.168;9.866;2023-03-26T01:11:01;99542.41;;;8.83;86.89
13934;BME280;7039;52.168;9.866;2023-03-26T01:13:33;99546.22;;;8.77;87.52
13934;BME280;7039;52.168;9.866;2023-03-26T01:16:01;99545.13;;;8.81;86.96
13934;BME280;7039;52.168;9.866;2023-03-26T01:18:31;99542.63;;;8.94;87.02
13934;BME280;7039;52.168;9.866;2023-03-26T01:21:05;99553.03;;;8.94;86.51
13934;BME280;7039;52.168;9.866;2023-03-26T01:23:40;99551.91;;;8.84;86.93
13934;BME280;7039;52.168;9.866;2023-03-26T01:26:19;99560.50;;;9.00;86.33
13934;BME280;7039;52.168;9.866;2023-03-26T01:28:54;99560.53;;;8.84;86.32
13934;BME280;7039;52.168;9.866;2023-03-26T01:31:25;99553.50;;;9.01;85.51
13934;BME280;7039;52.168;9.866;2023-03-26T01:33:58;99560.47;;;8.86;84.78
13934;BME280;7039;52.168;9.866;2023-03-26T01:36:37;99559.59;;;8.85;84.63
13934;BME280;7039;52.168;9.866;2023-03-26T01:39:11;99555.88;;;8.75;84.31
13934;BME280;7039;52.168;9.866;2023-03-26T01:41:46;99552.66;;;8.86;84.64
13934;BME280;7039;52.168;9.866;2023-03-26T01:44:19;99552.91;;;8.81;84.67
13934;BME280;7039;52.168;9.866;2023-03-26T01:46:48;99558.31;;;8.92;84.13
13934;BME280;7039;52.168;9.866;2023-03-26T01:49:17;99547.84;;;9.08;83.63
13934;BME280;7039;52.168;9.866;2023-03-26T01:51:43;99543.78;;;9.04;83.60
13934;BME280;7039;52.168;9.866;2023-03-26T01:54:12;99539.38;;;8.90;83.97
13934;BME280;7039;52.168;9.866;2023-03-26T01:56:50;99539.25;;;8.77;84.64
13934;BME280;7039;52.168;9.866;2023-03-26T02:02:13;99547.50;;;8.70;84.59
13934;BME280;7039;52.168;9.866;2023-03-26T02:04:45;99538.09;;;8.67;84.88
13934;BME280;7039;52.168;9.866;2023-03-26T02:07:21;99540.78;;;8.66;84.58
13934;BME280;7039;52.168;9.866;2023-03-26T02:09:53;99531.16;;;8.68;84.46
13934;BME280;7039;52.168;9.866;2023-03-26T02:12:24;99530.28;;;8.67;84.36
13934;BME280;7039;52.168;9.866;2023-03-26T02:14:51;99533.34;;;8.60;84.31
13934;BME280;7039;52.168;9.866;2023-03-26T02:17:18;99531.31;;;8.65;84.39
13934;BME280;7039;52.168;9.866;2023-03-26T02:19:48;99525.50;;;8.45;85.25
13934;BME280;7039;52.168;9.866;2023-03-26T02:22:15;99529.09;;;8.43;85.96
13934;BME280;7039;52.168;9.866;2023-03-26T02:24:42;99527.91;;;8.48;85.45
13934;BME280;7039;52.168;9.866;2023-03-26T02:27:08;99517.59;;;8.31;85.39
13934;BME280;7039;52.168;9.866;2023-03-26T02:29:38;99521.41;;;8.41;85.62
13934;BME280;7039;52.168;9.866;2023-03-26T02:32:06;99530.69;;;8.45;84.84
13934;BME280;7039;52.168;9.866;2023-03-26T02:34:33;99522.44;;;8.53;84.17
13934;BME280;7039;52.168;9.866;2023-03-26T02:37:00;99511.75;;;8.43;84.37
13934;BME280;7039;52.168;9.866;2023-03-26T02:39:27;99507.63;;;8.39;84.60
13934;BME280;7039;52.168;9.866;2023-03-26T02:41:53;99509.66;;;8.34;84.50
13934;BME280;7039;52.168;9.866;2023-03-26T02:44:20;99516.13;;;8.43;84.39
13934;BME280;7039;52.168;9.866;2023-03-26T02:46:47;99507.19;;;8.47;84.47
13934;BME280;7039;52.168;9.866;2023-03-26T02:49:14;99507.56;;;8.41;84.57
13934;BME280;7039;52.168;9.866;2023-03-26T02:51:41;99512.50;;;8.45;84.57
13934;BME280;7039;52.168;9.866;2023-03-26T02:54:07;99500.25;;;8.47;84.35
13934;BME280;7039;52.168;9.866;2023-03-26T02:56:34;99505.00;;;8.55;84.74
13934;BME280;7039;52.168;9.866;2023-03-26T02:59:00;99510.06;;;8.42;85.48
13934;BME280;7039;52.168;9.866;2023-03-26T03:01:27;99498.03;;;8.55;84.79
13934;BME280;7039;52.168;9.866;2023-03-26T03:03:56;99498.03;;;8.55;84.57
13934;BME280;7039;52.168;9.866;2023-03-26T03:06:22;99496.16;;;8.43;85.15
13934;BME280;7039;52.168;9.866;2023-03-26T03:08:50;99497.75;;;8.46;84.98
13934;BME280;7039;52.168;9.866;2023-03-26T03:11:18;99497.66;;;8.47;84.65
13934;BME280;7039;52.168;9.866;2023-03-26T03:13:47;99483.81;;;8.47;84.67
13934;BME280;7039;52.168;9.866;2023-03-26T03:16:14;99488.94;;;8.32;84.79
13934;BME280;7039;52.168;9.866;2023-03-26T03:18:41;99503.25;;;8.40;84.14
13934;BME280;7039;52.168;9.866;2023-03-26T03:21:09;99485.66;;;8.29;84.22
13934;BME280;7039;52.168;9.866;2023-03-26T03:23:35;99493.72;;;8.40;84.01
13934;BME280;7039;52.168;9.866;2023-03-26T03:26:02;99491.72;;;8.45;83.69
13934;BME280;7039;52.168;9.866;2023-03-26T03:28:30;99500.25;;;8.47;83.58
13934;BME280;7039;52.168;9.866;2023-03-26T03:30:57;99495.81;;;8.49;83.68
13934;BME280;7039;52.168;9.866;2023-03-26T03:33:23;99499.56;;;8.60;83.66
13934;BME280;7039;52.168;9.866;2023-03-26T03:35:50;99494.53;;;8.56;83.93
13934;BME280;7039;52.168;9.866;2023-03-26T03:38:18;99489.59;;;8.52;84.42
13934;BME280;7039;52.168;9.866;2023-03-26T03:40:44;99483.53;;;8.51;84.82
13934;BME280;7039;52.168;9.866;2023-03-26T03:43:11;99489.63;;;8.36;84.85
13934;BME280;7039;52.168;9.866;2023-03-26T03:45:37;99486.25;;;8.50;84.13
13934;BME280;7039;52.168;9.866;2023-03-26T03:48:04;99489.81;;;8.63;84.14
13934;BME280;7039;52.168;9.866;2023-03-26T03:50:31;99491.06;;;8.56;84.30
13934;BME280;7039;52.168;9.866;2023-03-26T03:52:57;99496.66;;;8.50;84.60
13934;BME280;7039;52.168;9.866;2023-03-26T03:55:26;99489.09;;;8.75;83.73
13934;BME280;7039;52.168;9.866;2023-03-26T03:57:54;99496.94;;;8.60;84.22
13934;BME280;7039;52.168;9.866;2023-03-26T04:00:21;99494.84;;;8.81;83.49
13934;BME280;7039;52.168;9.866;2023-03-26T04:02:48;99481.00;;;8.66;83.78
13934;BME280;7039;52.168;9.866;2023-03-26T04:05:18;99492.25;;;8.66;83.16
13934;BME280;7039;52.168;9.866;2023-03-26T04:07:45;99494.66;;;8.69;83.17
13934;BME280;7039;52.168;9.866;2023-03-26T04:10:14;99485.13;;;8.70;83.58
13934;BME280;7039;52.168;9.866;2023-03-26T04:12:42;99492.25;;;8.81;83.67
13934;BME280;7039;52.168;9.866;2023-03-26T04:15:09;99496.34;;;8.70;84.04
13934;BME280;7039;52.168;9.866;2023-03-26T04:17:35;99498.09;;;8.70;84.34
13934;BME280;7039;52.168;9.866;2023-03-26T04:20:07;99498.81;;;8.72;84.71
13934;BME280;7039;52.168;9.866;2023-03-26T04:22:34;99502.78;;;8.79;84.48
13934;BME280;7039;52.168;9.866;2023-03-26T04:25:01;99490.75;;;8.76;84.07
13934;BME280;7039;52.168;9.866;2023-03-26T04:27:30;99496.16;;;8.73;83.61
13934;BME280;7039;52.168;9.866;2023-03-26T04:30:02;99491.25;;;8.83;83.76
13934;BME280;7039;52.168;9.866;2023-03-26T04:32:30;99499.22;;;8.80;83.29
13934;BME280;7039;52.168;9.866;2023-03-26T04:34:59;99491.44;;;8.80;83.60
13934;BME280;7039;52.168;9.866;2023-03-26T04:37:31;99484.91;;;8.59;83.99
13934;BME280;7039;52.168;9.866;2023-03-26T04:40:07;99486.22;;;8.80;83.28
13934;BME280;7039;52.168;9.866;2023-03-26T04:42:33;99480.75;;;8.70;82.80
13934;BME280;7039;52.168;9.866;2023-03-26T04:45:04;99481.50;;;8.72;82.92
13934;BME280;7039;52.168;9.866;2023-03-26T04:47:30;99480.47;;;8.45;83.40
13934;BME280;7039;52.168;9.866;2023-03-26T04:50:01;99470.19;;;8.43;83.16
13934;BME280;7039;52.168;9.866;2023-03-26T04:52:27;99477.44;;;8.52;83.14
13934;BME280;7039;52.168;9.866;2023-03-26T04:54:54;99482.34;;;8.43;83.21
13934;BME280;7039;52.168;9.866;2023-03-26T04:57:23;99484.72;;;8.62;83.05
13934;BME280;7039;52.168;9.866;2023-03-26T04:59:51;99471.84;;;8.44;83.62
13934;BME280;7039;52.168;9.866;2023-03-26T05:02:19;99474.22;;;8.63;83.60
13934;BME280;7039;52.168;9.866;2023-03-26T05:04:45;99469.31;;;8.59;83.15
13934;BME280;7039;52.168;9.866;2023-03-26T05:07:16;99480.06;;;8.67;83.42
13934;BME280;7039;52.168;9.866;2023-03-26T05:09:44;99461.66;;;8.55;83.64
13934;BME280;7039;52.168;9.866;2023-03-26T05:12:10;99468.38;;;8.60;83.28
13934;BME280;7039;52.168;9.866;2023-03-26T05:14:37;99464.72;;;8.48;83.73
13934;BME280;7039;52.168;9.866;2023-03-26T05:17:03;99460.91;;;8.53;83.70
13934;BME280;7039;52.168;9.866;2023-03-26T05:19:31;99465.00;;;8.57;83.83
13934;BME280;7039;52.168;9.866;2023-03-26T05:21:58;99465.00;;;8.57;83.72
13934;BME280;7039;52.168;9.866;2023-03-26T05:24:24;99466.72;;;8.73;83.03
13934;BME280;7039;52.168;9.866;2023-03-26T05:26:53;99468.31;;;8.75;82.90
13934;BME280;7039;52.168;9.866;2023-03-26T05:29:20;99464.19;;;8.71;83.20
13934;BME280;7039;52.168;9.866;2023-03-26T05:31:48;99466.53;;;8.76;83.49
13934;BME280;7039;52.168;9.866;2023-03-26T05:34:15;99457.44;;;8.69;83.81
13934;BME280;7039;52.168;9.866;2023-03-26T05:36:42;99464.75;;;8.76;84.05
13934;BME280;7039;52.168;9.866;2023-03-26T05:39:09;99463.56;;;8.68;84.00
13934;BME280;7039;52.168;9.866;2023-03-26T05:41:36;99474.53;;;8.73;83.80
13934;BME280;7039;52.168;9.866;2023-03-26T05:44:03;99468.88;;;8.81;83.46
13934;BME280;7039;52.168;9.866;2023-03-26T05:46:30;99467.56;;;8.73;83.66
13934;BME280;7039;52.168;9.866;2023-03-26T05:48:56;99472.88;;;8.86;83.05
13934;BME280;7039;52.168;9.866;2023-03-26T05:51:23;99474.81;;;8.83;83.19
13934;BME280;7039;52.168;9.866;2023-03-26T05:53:51;99470.84;;;8.91;83.06
13934;BME280;7039;52.168;9.866;2023-03-26T05:56:17;99462.47;;;8.86;83.11
13934;BME280;7039;52.168;9.866;2023-03-26T05:58:44;99464.63;;;8.94;82.73
13934;BME280;7039;52.168;9.866;2023-03-26T06:01:13;99462.09;;;8.92;82.84
13934;BME280;7039;52.168;9.866;2023-03-26T06:03:44;99454.88;;;8.97;82.64
13934;BME280;7039;52.168;9.866;2023-03-26T06:06:12;99455.63;;;9.14;82.17
13934;BME280;7039;52.168;9.866;2023-03-26T06:08:40;99452.34;;;9.10;82.04
13934;BME280;7039;52.168;9.866;2023-03-26T06:11:09;99455.44;;;9.17;81.72
13934;BME280;7039;52.168;9.866;2023-03-26T06:13:36;99450.03;;;9.06;81.86
13934;BME280;7039;52.168;9.866;2023-03-26T06:16:03;99445.59;;;9.22;81.56
13934;BME280;7039;52.168;9.866;2023-03-26T06:18:30;99448.28;;;9.20;81.61
13934;BME280;7039;52.168;9.866;2023-03-26T06:20:57;99431.28;;;9.01;81.77
13934;BME280;7039;52.168;9.866;2023-03-26T06:23:23;99441.50;;;9.32;81.23
13934;BME280;7039;52.168;9.866;2023-03-26T06:25:50;99449.84;;;9.37;81.25
13934;BME280;7039;52.168;9.866;2023-03-26T06:28:17;99441.47;;;9.61;80.51
13934;BME280;7039;52.168;9.866;2023-03-26T06:30:44;99447.16;;;9.39;80.49
13934;BME280;7039;52.168;9.866;2023-03-26T06:33:11;99442.25;;;9.76;80.10
13934;BME280;7039;52.168;9.866;2023-03-26T06:35:37;99432.53;;;9.65;79.65
13934;BME280;7039;52.168;9.866;2023-03-26T06:38:04;99435.97;;;9.66;79.09
13934;BME280;7039;52.168;9.866;2023-03-26T06:40:32;99435.75;;;9.69;78.35
13934;BME280;7039;52.168;9.866;2023-03-26T06:42:59;99439.03;;;9.58;78.61
13934;BME280;7039;52.168;9.866;2023-03-26T06:45:27;99428.72;;;9.56;78.47
13934;BME280;7039;52.168;9.866;2023-03-26T06:47:54;99444.22;;;9.58;78.46
13934;BME280;7039;52.168;9.866;2023-03-26T06:50:20;99439.81;;;9.46;78.71
13934;BME280;7039;52.168;9.866;2023-03-26T06:52:47;99423.59;;;9.55;78.68
13934;BME280;7039;52.168;9.866;2023-03-26T06:55:15;99442.78;;;9.54;78.48
13934;BME280;7039;52.168;9.866;2023-03-26T06:57:41;99435.06;;;9.52;78.30
13934;BME280;7039;52.168;9.866;2023-03-26T07:00:10;99433.59;;;9.34;79.08
13934;BME280;7039;52.168;9.866;2023-03-26T07:02:39;99429.19;;;9.63;78.60
13934;BME280;7039;52.168;9.866;2023-03-26T07:05:05;99432.66;;;9.76;77.67
13934;BME280;7039;52.168;9.866;2023-03-26T07:07:32;99427.31;;;9.92;77.73
13934;BME280;7039;52.168;9.866;2023-03-26T07:09:58;99428.19;;;9.78;77.34
13934;BME280;7039;52.168;9.866;2023-03-26T07:12:25;99433.38;;;9.93;77.02
13934;BME280;7039;52.168;9.866;2023-03-26T07:14:52;99430.91;;;10.04;76.23
13934;BME280;7039;52.168;9.866;2023-03-26T07:17:18;99425.13;;;9.86;76.08
13934;BME280;7039;52.168;9.866;2023-03-26T07:19:46;99424.56;;;9.81;76.74
13934;BME280;7039;52.168;9.866;2023-03-26T07:22:14;99420.34;;;9.93;76.10
13934;BME280;7039;52.168;9.866;2023-03-26T07:24:44;99425.59;;;10.06;76.29
13934;BME280;7039;52.168;9.866;2023-03-26T07:27:21;99413.34;;;10.20;76.31
13934;BME280;7039;52.168;9.866;2023-03-26T07:29:58;99400.84;;;9.86;76.53
13934;BME280;7039;52.168;9.866;2023-03-26T07:35:23;99405.53;;;10.20;74.74
13934;BME280;7039;52.168;9.866;2023-03-26T07:38:02;99395.38;;;10.03;75.00
13934;BME280;7039;52.168;9.866;2023-03-26T07:40:45;99411.81;;;10.31;74.89
13934;BME280;7039;52.168;9.866;2023-03-26T07:43:22;99393.28;;;10.08;74.19
13934;BME280;7039;52.168;9.866;2023-03-26T07:45:53;99405.59;;;10.33;73.87
13934;BME280;7039;52.168;9.866;2023-03-26T07:48:22;99414.97;;;10.49;73.17
13934;BME280;7039;52.168;9.866;2023-03-26T07:50:53;99400.59;;;10.94;73.10
13934;BME280;7039;52.168;9.866;2023-03-26T07:53:21;99402.88;;;10.99;72.44
13934;BME280;7039;52.168;9.866;2023-03-26T07:55:52;99387.78;;;10.91;71.72
13934;BME280;7039;52.168;9.866;2023-03-26T07:58:35;99394.22;;;11.11;72.04
13934;BME280;7039;52.168;9.866;2023-03-26T08:01:07;99385.78;;;10.69;71.97
13934;BME280;7039;52.168;9.866;2023-03-26T08:03:54;99381.50;;;10.55;71.98
13934;BME280;7039;52.168;9.866;2023-03-26T08:06:31;99377.66;;;10.74;72.32
13934;BME280;7039;52.168;9.866;2023-03-26T08:09:04;99380.78;;;11.41;71.66
13934;BME280;7039;52.168;9.866;2023-03-26T08:11:41;99380.22;;;11.86;69.90
13934;BME280;7039;52.168;9.866;2023-03-26T08:14:22;99378.75;;;11.95;68.56
13934;BME280;7039;52.168;9.866;2023-03-26T08:16:54;99374.69;;;11.17;69.45
13934;BME280;7039;52.168;9.866;2023-03-26T08:19:34;99378.38;;;11.01;70.67
13934;BME280;7039;52.168;9.866;2023-03-26T08:22:11;99376.56;;;11.15;70.40
13934;BME280;7039;52.168;9.866;2023-03-26T08:24:55;99380.53;;;11.20;70.27
13934;BME280;7039;52.168;9.866;2023-03-26T08:27:33;99377.44;;;10.90;71.54
13934;BME280;7039;52.168;9.866;2023-03-26T08:30:07;99377.44;;;10.90;71.05
13934;BME280;7039;52.168;9.866;2023-03-26T08:32:35;99377.03;;;10.70;71.68
13934;BME280;7039;52.168;9.866;2023-03-26T08:35:02;99381.50;;;11.06;71.44
13934;BME280;7039;52.168;9.866;2023-03-26T08:37:30;99386.69;;;11.19;70.69
13934;BME280;7039;52.168;9.866;2023-03-26T08:39:57;99388.06;;;11.12;69.97
13934;BME280;7039;52.168;9.866;2023-03-26T08:46:00;99381.94;;;11.37;69.16
13934;BME280;7039;52.168;9.866;2023-03-26T08:48:56;99377.03;;;11.45;68.96
13934;BME280;7039;52.168;9.866;2023-03-26T08:54:37;99365.88;;;12.16;67.82
13934;BME280;7039;52.168;9.866;2023-03-26T08:57:24;99368.13;;;12.20;67.78
13934;BME280;7039;52.168;9.866;2023-03-26T09:00:11;99363.44;;;12.48;66.72
13934;BME280;7039;52.168;9.866;2023-03-26T09:06:12;99361.34;;;12.18;66.79
13934;BME280;7039;52.168;9.866;2023-03-26T09:12:26;99357.25;;;12.02;67.13
13934;BME280;7039;52.168;9.866;2023-03-26T09:21:31;99351.34;;;12.69;67.08
13934;BME280;7039;52.168;9.866;2023-03-26T09:24:24;99354.09;;;12.90;65.90
13934;BME280;7039;52.168;9.866;2023-03-26T09:26:59;99359.91;;;13.28;64.75
13934;BME280;7039;52.168;9.866;2023-03-26T09:29:57;99363.28;;;13.62;63.21
13934;BME280;7039;52.168;9.866;2023-03-26T09:32:45;99356.13;;;13.64;63.82
13934;BME280;7039;52.168;9.866;2023-03-26T09:35:35;99346.22;;;13.13;64.18
13934;BME280;7039;52.168;9.866;2023-03-26T09:38:10;99352.97;;;13.27;64.03
13934;BME280;7039;52.168;9.866;2023-03-26T09:40:47;99341.56;;;13.16;64.73
13934;BME280;7039;52.168;9.866;2023-03-26T09:43:31;99347.50;;;13.41;64.36
13934;BME280;7039;52.168;9.866;2023-03-26T09:46:13;99341.69;;;13.15;65.41
13934;BME280;7039;52.168;9.866;2023-03-26T09:49:23;99347.53;;;13.30;64.40
13934;BME280;7039;52.168;9.866;2023-03-26T09:52:16;99338.44;;;13.56;64.31
13934;BME280;7039;52.168;9.866;2023-03-26T09:57:55;99329.59;;;13.57;64.70
13934;BME280;7039;52.168;9.866;2023-03-26T10:00:30;99333.50;;;13.95;64.08
13934;BME280;7039;52.168;9.866;2023-03-26T10:03:14;99327.16;;;13.77;64.22
13934;BME280;7039;52.168;9.866;2023-03-26T10:05:51;99325.63;;;13.42;64.38
13934;BME280;7039;52.168;9.866;2023-03-26T10:08:40;99318.25;;;13.36;64.83
13934;BME280;7039;52.168;9.866;2023-03-26T10:11:19;99319.47;;;13.85;64.90
13934;BME280;7039;52.168;9.866;2023-03-26T10:13:56;99325.38;;;14.40;64.38
13934;BME280;7039;52.168;9.866;2023-03-26T10:16:29;99319.19;;;14.63;62.65
13934;BME280;7039;52.168;9.866;2023-03-26T10:19:09;99319.63;;;14.47;60.89
13934;BME280;7039;52.168;9.866;2023-03-26T10:21:44;99318.44;;;14.09;62.70
13934;BME280;7039;52.168;9.866;2023-03-26T10:24:21;99315.53;;;14.12;62.74
13934;BME280;7039;52.168;9.866;2023-03-26T10:27:01;99311.94;;;14.55;61.48
13934;BME280;7039;52.168;9.866;2023-03-26T10:32:45;99308.72;;;15.22;60.78
13934;BME280;7039;52.168;9.866;2023-03-26T10:35:27;99300.72;;;14.74;61.74
13934;BME280;7039;52.168;9.866;2023-03-26T10:38:12;99297.13;;;15.25;60.06
13934;BME280;7039;52.168;9.866;2023-03-26T10:40:46;99295.66;;;15.42;58.86
13934;BME280;7039;52.168;9.866;2023-03-26T10:43:43;99298.13;;;15.53;57.23
13934;BME280;7039;52.168;9.866;2023-03-26T10:46:34;99287.59;;;15.43;59.36
13934;BME280;7039;52.168;9.866;2023-03-26T10:49:21;99291.94;;;15.83;56.46
13934;BME280;7039;52.168;9.866;2023-03-26T10:51:57;99296.31;;;16.12;56.70
13934;BME280;7039;52.168;9.866;2023-03-26T10:54:33;99290.78;;;16.05;57.52
13934;BME280;7039;52.168;9.866;2023-03-26T10:57:05;99283.94;;;15.06;58.67
13934;BME280;7039;52.168;9.866;2023-03-26T10:59:35;99276.94;;;15.25;60.15
13934;BME280;7039;52.168;9.866;2023-03-26T11:02:22;99278.53;;;14.57;61.13
13934;BME280;7039;52.168;9.866;2023-03-26T11:04:58;99287.06;;;15.40;59.91
13934;BME280;7039;52.168;9.866;2023-03-26T11:07:35;99278.47;;;15.48;57.28
13934;BME280;7039;52.168;9.866;2023-03-26T11:10:08;99282.06;;;15.17;58.11
13934;BME280;7039;52.168;9.866;2023-03-26T11:12:42;99275.41;;;15.33;59.36
13934;BME280;7039;52.168;9.866;2023-03-26T11:15:18;99276.56;;;14.49;61.39
13934;BME280;7039;52.168;9.866;2023-03-26T11:17:53;99277.31;;;15.01;59.67
13934;BME280;7039;52.168;9.866;2023-03-26T11:20:32;99275.03;;;14.87;60.51
13934;BME280;7039;52.168;9.866;2023-03-26T11:23:12;99275.41;;;15.03;58.41
13934;BME280;7039;52.168;9.866;2023-03-26T11:25:51;99279.06;;;14.81;60.42
13934;BME280;7039;52.168;9.866;2023-03-26T11:28:32;99273.91;;;15.50;57.18
13934;BME280;7039;52.168;9.866;2023-03-26T11:31:12;99268.16;;;14.86;57.94
13934;BME280;7039;52.168;9.866;2023-03-26T11:33:45;99265.47;;;15.46;58.27
13934;BME280;7039;52.168;9.866;2023-03-26T11:36:16;99265.47;;;15.36;58.45
13934;BME280;7039;52.168;9.866;2023-03-26T11:38:48;99264.50;;;14.16;61.51
13934;BME280;7039;52.168;9.866;2023-03-26T11:41:17;99266.25;;;14.57;60.13
13934;BME280;7039;52.168;9.866;2023-03-26T11:43:48;99259.69;;;14.73;60.48
13934;BME280;7039;52.168;9.866;2023-03-26T11:46:19;99263.91;;;15.04;60.20
13934;BME280;7039;52.168;9.866;2023-03-26T11:48:48;99258.22;;;14.90;57.98
13934;BME280;7039;52.168;9.866;2023-03-26T11:51:28;99254.94;;;14.36;61.12
13934;BME280;7039;52.168;9.866;2023-03-26T11:53:57;99255.13;;;13.92;60.84
13934;BME280;7039;52.168;9.866;2023-03-26T11:56:27;99253.59;;;13.90;62.47
13934;BME280;7039;52.168;9.866;2023-03-26T11:59:00;99257.88;;;13.91;60.99
13934;BME280;7039;52.168;9.866;2023-03-26T12:01:41;99250.28;;;13.55;61.28
13934;BME280;7039;52.168;9.866;2023-03-26T12:04:10;99250.75;;;13.28;63.39
13934;BME280;7039;52.168;9.866;2023-03-26T12:06:38;99250.03;;;13.26;63.67
13934;BME280;7039;52.168;9.866;2023-03-26T12:09:15;99255.31;;;13.15;65.38
13934;BME280;7039;52.168;9.866;2023-03-26T12:11:42;99247.13;;;13.08;65.25
13934;BME280;7039;52.168;9.866;2023-03-26T12:14:16;99250.22;;;13.02;66.74
13934;BME280;7039;52.168;9.866;2023-03-26T12:16:56;99241.34;;;12.60;68.07
13934;BME280;7039;52.168;9.866;2023-03-26T12:19:22;99248.81;;;12.87;66.08
13934;BME280;7039;52.168;9.866;2023-03-26T12:21:52;99245.84;;;12.80;66.00
13934;BME280;7039;52.168;9.866;2023-03-26T12:24:29;99245.09;;;12.89;65.73
13934;BME280;7039;52.168;9.866;2023-03-26T12:26:57;99237.19;;;12.57;67.32
13934;BME280;7039;52.168;9.866;2023-03-26T12:29:26;99249.19;;;12.71;66.41
13934;BME280;7039;52.168;9.866;2023-03-26T12:31:55;99240.50;;;12.82;66.81
13934;BME280;7039;52.168;9.866;2023-03-26T12:34:27;99241.66;;;12.89;67.04
13934;BME280;7039;52.168;9.866;2023-03-26T12:36:56;99253.38;;;13.17;66.57
13934;BME280;7039;52.168;9.866;2023-03-26T12:39:32;99255.09;;;13.50;64.97
13934;BME280;7039;52.168;9.866;2023-03-26T12:42:00;99248.34;;;13.36;64.81
13934;BME280;7039;52.168;9.866;2023-03-26T12:44:30;99253.75;;;13.12;63.52
13934;BME280;7039;52.168;9.866;2023-03-26T12:47:12;99242.06;;;12.73;64.83
13934;BME280;7039;52.168;9.866;2023-03-26T12:49:40;99246.47;;;12.61;64.84
13934;BME280;7039;52.168;9.866;2023-03-26T12:52:19;99256.53;;;13.00;65.65
13934;BME280;7039;52.168;9.866;2023-03-26T12:54:55;99251.16;;;13.56;64.18
13934;BME280;7039;52.168;9.866;2023-03-26T12:57:28;99250.44;;;13.54;63.67
13934;BME280;7039;52.168;9.866;2023-03-26T13:00:05;99249.66;;;13.42;63.21
13934;BME280;7039;52.168;9.866;2023-03-26T13:02:57;99246.00;;;13.33;62.73
13934;BME280;7039;52.168;9.866;2023-03-26T13:05:34;99248.53;;;13.98;62.12
13934;BME280;7039;52.168;9.866;2023-03-26T13:08:16;99247.94;;;14.15;62.46
13934;BME280;7039;52.168;9.866;2023-03-26T13:10:56;99234.59;;;13.97;62.96
13934;BME280;7039;52.168;9.866;2023-03-26T13:13:42;99237.09;;;13.99;63.33
13934;BME280;7039;52.168;9.866;2023-03-26T13:16:17;99240.78;;;13.75;63.01
13934;BME280;7039;52.168;9.866;2023-03-26T13:18:51;99241.59;;;14.18;62.60
13934;BME280;7039;52.168;9.866;2023-03-26T13:21:29;99235.22;;;14.11;62.43
13934;BME280;7039;52.168;9.866;2023-03-26T13:24:06;99237.22;;;13.97;61.92
13934;BME280;7039;52.168;9.866;2023-03-26T13:26:48;99230.31;;;13.54;63.07
13934;BME280;7039;52.168;9.866;2023-03-26T13:29:23;99220.53;;;13.24;62.71
13934;BME280;7039;52.168;9.866;2023-03-26T13:31:55;99222.72;;;13.51;64.43
13934;BME280;7039;52.168;9.866;2023-03-26T13:34:29;99225.00;;;13.87;63.88
13934;BME280;7039;52.168;9.866;2023-03-26T13:37:07;99232.59;;;14.11;62.53
13934;BME280;7039;52.168;9.866;2023-03-26T13:39:44;99223.13;;;14.19;62.83
13934;BME280;7039;52.168;9.866;2023-03-26T13:42:29;99226.19;;;14.25;63.35
13934;BME280;7039;52.168;9.866;2023-03-26T13:45:05;99215.97;;;14.00;63.86
13934;BME280;7039;52.168;9.866;2023-03-26T13:47:40;99214.09;;;13.17;66.26
13934;BME280;7039;52.168;9.866;2023-03-26T13:50:17;99206.06;;;12.43;68.52
13934;BME280;7039;52.168;9.866;2023-03-26T13:52:48;99212.91;;;11.99;71.10
13934;BME280;7039;52.168;9.866;2023-03-26T13:55:20;99206.28;;;11.95;70.76
13934;BME280;7039;52.168;9.866;2023-03-26T13:57:54;99210.09;;;12.13;71.30
13934;BME280;7039;52.168;9.866;2023-03-26T14:00:26;99212.34;;;12.06;71.05
13934;BME280;7039;52.168;9.866;2023-03-26T15:34:38;99249.66;;;11.38;78.92
13934;BME280;7039;52.168;9.866;2023-03-26T15:37:32;99250.72;;;11.11;79.55
13934;BME280;7039;52.168;9.866;2023-03-26T15:43:11;99243.66;;;10.25;83.46
13934;BME280;7039;52.168;9.866;2023-03-26T15:45:40;99247.63;;;10.05;85.15
13934;BME280;7039;52.168;9.866;2023-03-26T15:48:44;99250.97;;;10.33;85.04
13934;BME280;7039;52.168;9.866;2023-03-26T15:51:29;99260.75;;;10.55;83.82